sensor_id;sensor_type;location;lat;lon;timestamp;P1;durP1;ratioP1;P2;durP2;ratioP2
28577;SDS011;15769;52.248;15.818;2023-04-25T00:03:11;3.70;;;2.55;;
28577;SDS011;15769;52.248;15.818;2023-04-25T00:08:13;5.07;;;3.40;;
28577;SDS011;15769;52.248;15.818;2023-04-25T00:13:16;2.93;;;1.90;;
28577;SDS011;15769;52.248;15.818;2023-04-25T00:18:19;2.00;;;1.80;;
28577;SDS011;15769;52.248;15.818;2023-04-25T00:23:22;2.03;;;1.80;;
28577;SDS011;15769;52.248;15.818;2023-04-25T00:28:26;2.47;;;1.90;;
28577;SDS011;15769;52.248;15.818;2023-04-25T00:33:28;2.35;;;1.70;;
28577;SDS011;15769;52.248;15.818;2023-04-25T00:38:31;2.07;;;1.90;;
28577;SDS011;15769;52.248;15.818;2023-04-25T00:43:34;2.42;;;1.75;;
28577;SDS011;15769;52.248;15.818;2023-04-25T00:48:40;2.08;;;1.75;;
28577;SDS011;15769;52.248;15.818;2023-04-25T00:53:44;3.22;;;2.30;;
28577;SDS011;15769;52.248;15.818;2023-04-25T00:58:47;3.92;;;2.50;;
28577;SDS011;15769;52.248;15.818;2023-04-25T01:03:50;4.82;;;3.08;;
28577;SDS011;15769;52.248;15.818;2023-04-25T01:08:54;2.67;;;2.30;;
28577;SDS011;15769;52.248;15.818;2023-04-25T01:13:59;2.85;;;2.20;;
28577;SDS011;15769;52.248;15.818;2023-04-25T01:19:06;2.70;;;2.50;;
28577;SDS011;15769;52.248;15.818;2023-04-25T01:24:14;3.45;;;2.90;;
28577;SDS011;15769;52.248;15.818;2023-04-25T01:29:18;4.28;;;2.90;;
28577;SDS011;15769;52.248;15.818;2023-04-25T01:34:21;4.72;;;2.95;;
28577;SDS011;15769;52.248;15.818;2023-04-25T01:39:24;4.47;;;3.10;;
28577;SDS011;15769;52.248;15.818;2023-04-25T01:44:27;3.95;;;3.15;;
28577;SDS011;15769;52.248;15.818;2023-04-25T01:49:30;3.40;;;3.03;;
28577;SDS011;15769;52.248;15.818;2023-04-25T01:54:33;3.65;;;3.30;;
28577;SDS011;15769;52.248;15.818;2023-04-25T01:59:36;6.33;;;3.67;;
28577;SDS011;15769;52.248;15.818;2023-04-25T02:04:55;3.63;;;3.05;;
28577;SDS011;15769;52.248;15.818;2023-04-25T02:10:01;4.88;;;3.05;;
28577;SDS011;15769;52.248;15.818;2023-04-25T02:15:08;3.67;;;3.30;;
28577;SDS011;15769;52.248;15.818;2023-04-25T02:20:32;5.30;;;3.35;;
28577;SDS011;15769;52.248;15.818;2023-04-25T02:25:34;5.13;;;3.53;;
28577;SDS011;15769;52.248;15.818;2023-04-25T02:30:37;3.70;;;3.30;;
28577;SDS011;15769;52.248;15.818;2023-04-25T02:35:41;4.57;;;2.83;;
28577;SDS011;15769;52.248;15.818;2023-04-25T02:40:43;6.53;;;3.95;;
28577;SDS011;15769;52.248;15.818;2023-04-25T02:45:46;4.57;;;3.50;;
28577;SDS011;15769;52.248;15.818;2023-04-25T02:50:51;4.90;;;3.65;;
28577;SDS011;15769;52.248;15.818;2023-04-25T02:55:53;3.77;;;3.33;;
28577;SDS011;15769;52.248;15.818;2023-04-25T03:00:56;3.40;;;3.10;;
28577;SDS011;15769;52.248;15.818;2023-04-25T03:05:59;4.38;;;3.17;;
28577;SDS011;15769;52.248;15.818;2023-04-25T03:11:06;4.70;;;3.10;;
28577;SDS011;15769;52.248;15.818;2023-04-25T03:21:12;5.57;;;3.50;;
28577;SDS011;15769;52.248;15.818;2023-04-25T03:26:15;6.45;;;3.67;;
28577;SDS011;15769;52.248;15.818;2023-04-25T03:31:17;3.43;;;3.13;;
28577;SDS011;15769;52.248;15.818;2023-04-25T03:36:20;4.53;;;3.17;;
28577;SDS011;15769;52.248;15.818;2023-04-25T03:41:23;5.67;;;4.03;;
28577;SDS011;15769;52.248;15.818;2023-04-25T03:46:33;6.93;;;4.07;;
28577;SDS011;15769;52.248;15.818;2023-04-25T03:51:36;5.10;;;3.70;;
28577;SDS011;15769;52.248;15.818;2023-04-25T03:56:41;4.25;;;3.85;;
28577;SDS011;15769;52.248;15.818;2023-04-25T04:01:52;5.90;;;4.00;;
28577;SDS011;15769;52.248;15.818;2023-04-25T04:06:55;4.53;;;4.13;;
28577;SDS011;15769;52.248;15.818;2023-04-25T04:12:01;5.47;;;3.88;;
28577;SDS011;15769;52.248;15.818;2023-04-25T04:17:06;7.07;;;4.78;;
28577;SDS011;15769;52.248;15.818;2023-04-25T04:22:09;6.03;;;4.00;;
28577;SDS011;15769;52.248;15.818;2023-04-25T04:27:13;7.00;;;4.60;;
28577;SDS011;15769;52.248;15.818;2023-04-25T04:32:26;8.75;;;5.85;;
28577;SDS011;15769;52.248;15.818;2023-04-25T04:37:30;6.05;;;5.13;;
28577;SDS011;15769;52.248;15.818;2023-04-25T04:42:34;7.60;;;5.97;;
28577;SDS011;15769;52.248;15.818;2023-04-25T04:48:09;8.02;;;5.30;;
28577;SDS011;15769;52.248;15.818;2023-04-25T04:53:33;5.93;;;4.80;;
28577;SDS011;15769;52.248;15.818;2023-04-25T04:59:05;8.50;;;5.25;;
28577;SDS011;15769;52.248;15.818;2023-04-25T05:04:08;6.55;;;4.72;;
28577;SDS011;15769;52.248;15.818;2023-04-25T05:09:22;8.60;;;4.28;;
28577;SDS011;15769;52.248;15.818;2023-04-25T05:14:45;8.77;;;4.88;;
28577;SDS011;15769;52.248;15.818;2023-04-25T05:20:08;10.55;;;4.85;;
28577;SDS011;15769;52.248;15.818;2023-04-25T05:25:32;7.93;;;5.20;;
28577;SDS011;15769;52.248;15.818;2023-04-25T05:30:41;13.18;;;7.20;;
28577;SDS011;15769;52.248;15.818;2023-04-25T05:36:02;7.93;;;5.60;;
28577;SDS011;15769;52.248;15.818;2023-04-25T05:41:05;10.20;;;5.67;;
28577;SDS011;15769;52.248;15.818;2023-04-25T05:46:28;9.23;;;5.80;;
28577;SDS011;15769;52.248;15.818;2023-04-25T05:51:48;9.88;;;5.78;;
28577;SDS011;15769;52.248;15.818;2023-04-25T05:57:22;7.82;;;5.28;;
28577;SDS011;15769;52.248;15.818;2023-04-25T06:02:26;7.93;;;5.07;;
28577;SDS011;15769;52.248;15.818;2023-04-25T06:07:30;8.80;;;5.82;;
28577;SDS011;15769;52.248;15.818;2023-04-25T06:12:33;8.43;;;5.10;;
28577;SDS011;15769;52.248;15.818;2023-04-25T06:17:38;6.53;;;5.28;;
28577;SDS011;15769;52.248;15.818;2023-04-25T06:22:41;9.27;;;6.07;;
28577;SDS011;15769;52.248;15.818;2023-04-25T06:27:43;9.73;;;6.13;;
28577;SDS011;15769;52.248;15.818;2023-04-25T06:32:47;13.13;;;7.38;;
28577;SDS011;15769;52.248;15.818;2023-04-25T06:37:50;7.88;;;5.32;;
28577;SDS011;15769;52.248;15.818;2023-04-25T06:42:56;10.27;;;5.93;;
28577;SDS011;15769;52.248;15.818;2023-04-25T06:48:17;9.93;;;5.13;;
28577;SDS011;15769;52.248;15.818;2023-04-25T06:53:20;10.50;;;5.30;;
28577;SDS011;15769;52.248;15.818;2023-04-25T06:58:29;9.88;;;6.22;;
28577;SDS011;15769;52.248;15.818;2023-04-25T07:03:48;11.80;;;6.28;;
28577;SDS011;15769;52.248;15.818;2023-04-25T07:08:53;10.18;;;5.45;;
28577;SDS011;15769;52.248;15.818;2023-04-25T07:13:56;15.02;;;7.03;;
28577;SDS011;15769;52.248;15.818;2023-04-25T07:18:59;9.35;;;5.38;;
28577;SDS011;15769;52.248;15.818;2023-04-25T07:24:03;8.35;;;4.78;;
28577;SDS011;15769;52.248;15.818;2023-04-25T07:29:10;5.50;;;4.45;;
28577;SDS011;15769;52.248;15.818;2023-04-25T07:34:13;8.75;;;5.57;;
28577;SDS011;15769;52.248;15.818;2023-04-25T07:39:16;10.90;;;5.43;;
28577;SDS011;15769;52.248;15.818;2023-04-25T07:44:19;9.07;;;5.43;;
28577;SDS011;15769;52.248;15.818;2023-04-25T07:49:22;6.40;;;4.97;;
28577;SDS011;15769;52.248;15.818;2023-04-25T07:54:26;7.57;;;4.68;;
28577;SDS011;15769;52.248;15.818;2023-04-25T07:59:35;7.93;;;4.85;;
28577;SDS011;15769;52.248;15.818;2023-04-25T08:09:43;8.02;;;4.57;;
28577;SDS011;15769;52.248;15.818;2023-04-25T08:14:54;7.63;;;4.30;;
28577;SDS011;15769;52.248;15.818;2023-04-25T08:20:00;8.05;;;4.50;;
28577;SDS011;15769;52.248;15.818;2023-04-25T08:25:06;8.18;;;4.32;;
28577;SDS011;15769;52.248;15.818;2023-04-25T08:30:10;5.78;;;3.88;;
28577;SDS011;15769;52.248;15.818;2023-04-25T08:35:15;6.45;;;4.88;;
28577;SDS011;15769;52.248;15.818;2023-04-25T08:40:18;9.50;;;4.80;;
28577;SDS011;15769;52.248;15.818;2023-04-25T08:45:31;7.82;;;4.00;;
28577;SDS011;15769;52.248;15.818;2023-04-25T08:50:37;7.93;;;4.00;;
28577;SDS011;15769;52.248;15.818;2023-04-25T08:55:41;6.03;;;3.50;;
28577;SDS011;15769;52.248;15.818;2023-04-25T09:00:45;7.82;;;4.32;;
28577;SDS011;15769;52.248;15.818;2023-04-25T09:05:51;8.55;;;4.57;;
28577;SDS011;15769;52.248;15.818;2023-04-25T09:10:53;6.50;;;3.80;;
28577;SDS011;15769;52.248;15.818;2023-04-25T09:15:57;5.97;;;4.13;;
28577;SDS011;15769;52.248;15.818;2023-04-25T09:21:23;8.82;;;4.70;;
28577;SDS011;15769;52.248;15.818;2023-04-25T09:26:26;7.57;;;3.72;;
28577;SDS011;15769;52.248;15.818;2023-04-25T09:31:28;6.07;;;3.67;;
28577;SDS011;15769;52.248;15.818;2023-04-25T09:36:35;7.65;;;4.03;;
28577;SDS011;15769;52.248;15.818;2023-04-25T09:42:03;8.02;;;3.85;;
28577;SDS011;15769;52.248;15.818;2023-04-25T09:47:09;5.82;;;3.00;;
28577;SDS011;15769;52.248;15.818;2023-04-25T09:52:15;5.45;;;2.72;;
28577;SDS011;15769;52.248;15.818;2023-04-25T09:57:31;5.20;;;2.80;;
28577;SDS011;15769;52.248;15.818;2023-04-25T10:02:34;5.35;;;2.90;;
28577;SDS011;15769;52.248;15.818;2023-04-25T10:07:41;6.07;;;3.53;;
28577;SDS011;15769;52.248;15.818;2023-04-25T10:12:50;6.38;;;3.60;;
28577;SDS011;15769;52.248;15.818;2023-04-25T10:17:53;4.03;;;3.13;;
28577;SDS011;15769;52.248;15.818;2023-04-25T10:22:57;8.38;;;5.93;;
28577;SDS011;15769;52.248;15.818;2023-04-25T10:28:03;6.55;;;3.70;;
28577;SDS011;15769;52.248;15.818;2023-04-25T10:33:17;5.13;;;3.55;;
28577;SDS011;15769;52.248;15.818;2023-04-25T10:38:24;14.60;;;13.10;;
28577;SDS011;15769;52.248;15.818;2023-04-25T10:48:34;9.98;;;6.57;;
28577;SDS011;15769;52.248;15.818;2023-04-25T10:53:36;9.20;;;5.40;;
28577;SDS011;15769;52.248;15.818;2023-04-25T10:58:43;9.82;;;6.28;;
28577;SDS011;15769;52.248;15.818;2023-04-25T11:03:46;11.90;;;8.80;;
28577;SDS011;15769;52.248;15.818;2023-04-25T11:08:53;4.65;;;3.70;;
28577;SDS011;15769;52.248;15.818;2023-04-25T11:13:59;7.18;;;4.18;;
28577;SDS011;15769;52.248;15.818;2023-04-25T11:19:02;22.10;;;14.43;;
28577;SDS011;15769;52.248;15.818;2023-04-25T11:24:05;30.38;;;17.67;;
28577;SDS011;15769;52.248;15.818;2023-04-25T11:29:08;66.72;;;29.75;;
28577;SDS011;15769;52.248;15.818;2023-04-25T11:34:10;28.63;;;15.85;;
28577;SDS011;15769;52.248;15.818;2023-04-25T11:39:13;23.00;;;11.95;;
28577;SDS011;15769;52.248;15.818;2023-04-25T11:44:17;36.50;;;18.40;;
28577;SDS011;15769;52.248;15.818;2023-04-25T11:49:21;61.20;;;30.92;;
28577;SDS011;15769;52.248;15.818;2023-04-25T11:54:24;33.45;;;17.50;;
28577;SDS011;15769;52.248;15.818;2023-04-25T11:59:29;55.97;;;26.50;;
28577;SDS011;15769;52.248;15.818;2023-04-25T12:04:33;54.05;;;26.33;;
28577;SDS011;15769;52.248;15.818;2023-04-25T12:09:36;51.72;;;24.15;;
28577;SDS011;15769;52.248;15.818;2023-04-25T12:14:38;61.57;;;34.67;;
28577;SDS011;15769;52.248;15.818;2023-04-25T12:19:41;53.13;;;45.83;;
28577;SDS011;15769;52.248;15.818;2023-04-25T12:24:44;47.83;;;29.08;;
28577;SDS011;15769;52.248;15.818;2023-04-25T12:29:53;36.58;;;21.20;;
28577;SDS011;15769;52.248;15.818;2023-04-25T12:34:58;28.35;;;17.10;;
28577;SDS011;15769;52.248;15.818;2023-04-25T12:40:03;23.77;;;15.20;;
28577;SDS011;15769;52.248;15.818;2023-04-25T12:45:07;18.83;;;11.77;;
28577;SDS011;15769;52.248;15.818;2023-04-25T12:50:10;22.23;;;14.20;;
28577;SDS011;15769;52.248;15.818;2023-04-25T12:55:13;19.60;;;10.13;;
28577;SDS011;15769;52.248;15.818;2023-04-25T13:00:15;9.07;;;6.20;;
28577;SDS011;15769;52.248;15.818;2023-04-25T13:05:21;22.60;;;13.52;;
28577;SDS011;15769;52.248;15.818;2023-04-25T13:10:26;25.58;;;15.70;;
28577;SDS011;15769;52.248;15.818;2023-04-25T13:15:33;12.43;;;5.95;;
28577;SDS011;15769;52.248;15.818;2023-04-25T13:20:36;8.57;;;4.10;;
28577;SDS011;15769;52.248;15.818;2023-04-25T13:25:39;15.43;;;6.90;;
28577;SDS011;15769;52.248;15.818;2023-04-25T13:30:43;28.17;;;14.98;;
28577;SDS011;15769;52.248;15.818;2023-04-25T13:35:47;45.60;;;24.83;;
28577;SDS011;15769;52.248;15.818;2023-04-25T13:40:56;48.90;;;27.13;;
28577;SDS011;15769;52.248;15.818;2023-04-25T13:45:59;62.23;;;31.47;;
28577;SDS011;15769;52.248;15.818;2023-04-25T13:51:02;24.20;;;14.33;;
28577;SDS011;15769;52.248;15.818;2023-04-25T13:56:05;42.80;;;24.60;;
28577;SDS011;15769;52.248;15.818;2023-04-25T14:01:08;54.42;;;32.63;;
28577;SDS011;15769;52.248;15.818;2023-04-25T14:06:11;102.43;;;57.33;;
28577;SDS011;15769;52.248;15.818;2023-04-25T14:11:28;89.78;;;69.90;;
28577;SDS011;15769;52.248;15.818;2023-04-25T14:16:32;95.03;;;76.78;;
28577;SDS011;15769;52.248;15.818;2023-04-25T14:21:35;76.60;;;44.50;;
28577;SDS011;15769;52.248;15.818;2023-04-25T14:26:37;63.90;;;34.03;;
28577;SDS011;15769;52.248;15.818;2023-04-25T14:31:40;85.20;;;43.55;;
28577;SDS011;15769;52.248;15.818;2023-04-25T14:36:44;80.40;;;36.17;;
28577;SDS011;15769;52.248;15.818;2023-04-25T14:41:47;50.22;;;22.67;;
28577;SDS011;15769;52.248;15.818;2023-04-25T14:46:49;27.80;;;12.63;;
28577;SDS011;15769;52.248;15.818;2023-04-25T14:51:54;23.80;;;12.55;;
28577;SDS011;15769;52.248;15.818;2023-04-25T14:56:56;20.77;;;10.23;;
28577;SDS011;15769;52.248;15.818;2023-04-25T15:02:00;19.67;;;7.90;;
28577;SDS011;15769;52.248;15.818;2023-04-25T15:07:04;20.23;;;7.47;;
28577;SDS011;15769;52.248;15.818;2023-04-25T15:12:08;12.13;;;4.63;;
28577;SDS011;15769;52.248;15.818;2023-04-25T15:17:11;17.63;;;6.75;;
28577;SDS011;15769;52.248;15.818;2023-04-25T15:22:16;28.50;;;12.43;;
28577;SDS011;15769;52.248;15.818;2023-04-25T15:27:18;22.60;;;10.75;;
28577;SDS011;15769;52.248;15.818;2023-04-25T15:32:21;35.28;;;13.02;;
28577;SDS011;15769;52.248;15.818;2023-04-25T15:37:25;21.98;;;10.35;;
28577;SDS011;15769;52.248;15.818;2023-04-25T15:42:28;33.25;;;16.52;;
28577;SDS011;15769;52.248;15.818;2023-04-25T15:47:33;22.17;;;11.32;;
28577;SDS011;15769;52.248;15.818;2023-04-25T15:52:37;36.83;;;15.20;;
28577;SDS011;15769;52.248;15.818;2023-04-25T15:57:40;42.72;;;18.30;;
28577;SDS011;15769;52.248;15.818;2023-04-25T16:02:44;34.33;;;16.33;;
28577;SDS011;15769;52.248;15.818;2023-04-25T16:07:47;33.42;;;14.88;;
28577;SDS011;15769;52.248;15.818;2023-04-25T16:12:52;24.40;;;9.35;;
28577;SDS011;15769;52.248;15.818;2023-04-25T16:17:55;23.00;;;9.95;;
28577;SDS011;15769;52.248;15.818;2023-04-25T16:22:58;19.90;;;9.80;;
28577;SDS011;15769;52.248;15.818;2023-04-25T16:28:00;15.43;;;8.63;;
28577;SDS011;15769;52.248;15.818;2023-04-25T16:33:03;22.30;;;9.20;;
28577;SDS011;15769;52.248;15.818;2023-04-25T16:38:05;33.17;;;13.43;;
28577;SDS011;15769;52.248;15.818;2023-04-25T16:43:08;29.77;;;12.07;;
28577;SDS011;15769;52.248;15.818;2023-04-25T16:48:10;24.40;;;8.90;;
28577;SDS011;15769;52.248;15.818;2023-04-25T16:53:13;18.73;;;8.90;;
28577;SDS011;15769;52.248;15.818;2023-04-25T16:58:16;23.42;;;9.30;;
28577;SDS011;15769;52.248;15.818;2023-04-25T17:03:18;28.13;;;10.73;;
28577;SDS011;15769;52.248;15.818;2023-04-25T17:08:22;27.83;;;9.90;;
28577;SDS011;15769;52.248;15.818;2023-04-25T17:13:25;32.00;;;11.18;;
28577;SDS011;15769;52.248;15.818;2023-04-25T17:18:32;19.08;;;9.88;;
28577;SDS011;15769;52.248;15.818;2023-04-25T17:23:35;27.67;;;10.88;;
28577;SDS011;15769;52.248;15.818;2023-04-25T17:28:38;23.08;;;8.60;;
28577;SDS011;15769;52.248;15.818;2023-04-25T17:33:43;22.33;;;8.75;;
28577;SDS011;15769;52.248;15.818;2023-04-25T17:38:45;21.88;;;9.48;;
28577;SDS011;15769;52.248;15.818;2023-04-25T17:43:48;19.33;;;7.80;;
28577;SDS011;15769;52.248;15.818;2023-04-25T17:48:50;21.52;;;6.70;;
28577;SDS011;15769;52.248;15.818;2023-04-25T17:53:54;25.60;;;9.63;;
28577;SDS011;15769;52.248;15.818;2023-04-25T17:58:57;26.73;;;11.57;;
28577;SDS011;15769;52.248;15.818;2023-04-25T18:04:01;31.55;;;17.50;;
28577;SDS011;15769;52.248;15.818;2023-04-25T18:09:07;29.00;;;12.60;;
28577;SDS011;15769;52.248;15.818;2023-04-25T18:14:17;34.38;;;16.05;;
28577;SDS011;15769;52.248;15.818;2023-04-25T18:19:21;41.45;;;13.15;;
28577;SDS011;15769;52.248;15.818;2023-04-25T18:24:24;63.87;;;24.07;;
28577;SDS011;15769;52.248;15.818;2023-04-25T18:29:28;33.10;;;14.05;;
28577;SDS011;15769;52.248;15.818;2023-04-25T18:34:35;31.67;;;12.68;;
28577;SDS011;15769;52.248;15.818;2023-04-25T18:39:43;30.33;;;9.87;;
28577;SDS011;15769;52.248;15.818;2023-04-25T18:44:46;41.80;;;16.25;;
28577;SDS011;15769;52.248;15.818;2023-04-25T18:49:49;33.87;;;18.17;;
28577;SDS011;15769;52.248;15.818;2023-04-25T18:54:51;33.43;;;18.13;;
28577;SDS011;15769;52.248;15.818;2023-04-25T18:59:54;49.07;;;19.70;;
28577;SDS011;15769;52.248;15.818;2023-04-25T19:04:58;44.17;;;20.83;;
28577;SDS011;15769;52.248;15.818;2023-04-25T19:10:04;66.05;;;31.73;;
28577;SDS011;15769;52.248;15.818;2023-04-25T19:15:09;49.90;;;24.40;;
28577;SDS011;15769;52.248;15.818;2023-04-25T19:20:15;62.97;;;30.70;;
28577;SDS011;15769;52.248;15.818;2023-04-25T19:25:18;58.35;;;28.88;;
28577;SDS011;15769;52.248;15.818;2023-04-25T19:30:22;63.03;;;32.20;;
28577;SDS011;15769;52.248;15.818;2023-04-25T19:35:25;53.30;;;31.63;;
28577;SDS011;15769;52.248;15.818;2023-04-25T19:40:34;34.03;;;19.40;;
28577;SDS011;15769;52.248;15.818;2023-04-25T19:45:37;37.40;;;18.75;;
28577;SDS011;15769;52.248;15.818;2023-04-25T19:50:39;34.25;;;16.85;;
28577;SDS011;15769;52.248;15.818;2023-04-25T19:55:42;34.17;;;14.55;;
28577;SDS011;15769;52.248;15.818;2023-04-25T20:00:45;26.73;;;12.23;;
28577;SDS011;15769;52.248;15.818;2023-04-25T20:05:48;16.10;;;7.75;;
28577;SDS011;15769;52.248;15.818;2023-04-25T20:10:51;18.80;;;7.80;;
28577;SDS011;15769;52.248;15.818;2023-04-25T20:15:54;17.13;;;8.13;;
28577;SDS011;15769;52.248;15.818;2023-04-25T20:20:56;22.87;;;10.30;;
28577;SDS011;15769;52.248;15.818;2023-04-25T20:25:59;54.78;;;22.30;;
28577;SDS011;15769;52.248;15.818;2023-04-25T20:31:02;66.30;;;25.90;;
28577;SDS011;15769;52.248;15.818;2023-04-25T20:36:05;60.72;;;22.95;;
28577;SDS011;15769;52.248;15.818;2023-04-25T20:41:08;35.47;;;14.63;;
28577;SDS011;15769;52.248;15.818;2023-04-25T20:46:10;29.90;;;12.07;;
28577;SDS011;15769;52.248;15.818;2023-04-25T20:51:13;24.35;;;11.98;;
28577;SDS011;15769;52.248;15.818;2023-04-25T20:56:19;19.00;;;8.50;;
28577;SDS011;15769;52.248;15.818;2023-04-25T21:01:22;19.02;;;10.45;;
28577;SDS011;15769;52.248;15.818;2023-04-25T21:06:25;13.45;;;8.25;;
28577;SDS011;15769;52.248;15.818;2023-04-25T21:11:28;20.80;;;8.48;;
28577;SDS011;15769;52.248;15.818;2023-04-25T21:16:31;18.07;;;9.30;;
28577;SDS011;15769;52.248;15.818;2023-04-25T21:21:38;18.23;;;9.13;;
28577;SDS011;15769;52.248;15.818;2023-04-25T21:26:41;16.17;;;7.93;;
28577;SDS011;15769;52.248;15.818;2023-04-25T21:31:43;16.97;;;11.03;;
28577;SDS011;15769;52.248;15.818;2023-04-25T21:41:50;36.85;;;14.50;;
28577;SDS011;15769;52.248;15.818;2023-04-25T21:46:52;74.15;;;23.25;;
28577;SDS011;15769;52.248;15.818;2023-04-25T21:51:55;65.13;;;23.13;;
28577;SDS011;15769;52.248;15.818;2023-04-25T21:57:03;28.92;;;12.30;;
28577;SDS011;15769;52.248;15.818;2023-04-25T22:02:05;23.52;;;10.13;;
28577;SDS011;15769;52.248;15.818;2023-04-25T22:07:10;23.70;;;9.82;;
28577;SDS011;15769;52.248;15.818;2023-04-25T22:12:13;15.70;;;6.03;;
28577;SDS011;15769;52.248;15.818;2023-04-25T22:17:16;9.50;;;4.00;;
28577;SDS011;15769;52.248;15.818;2023-04-25T22:22:34;8.50;;;3.45;;
28577;SDS011;15769;52.248;15.818;2023-04-25T22:27:36;10.88;;;4.40;;
28577;SDS011;15769;52.248;15.818;2023-04-25T22:32:42;10.80;;;3.85;;
28577;SDS011;15769;52.248;15.818;2023-04-25T22:37:45;9.02;;;2.90;;
28577;SDS011;15769;52.248;15.818;2023-04-25T22:42:48;8.37;;;3.30;;
28577;SDS011;15769;52.248;15.818;2023-04-25T22:47:51;5.15;;;2.72;;
28577;SDS011;15769;52.248;15.818;2023-04-25T22:52:54;6.00;;;2.72;;
28577;SDS011;15769;52.248;15.818;2023-04-25T22:57:58;9.20;;;2.90;;
28577;SDS011;15769;52.248;15.818;2023-04-25T23:03:00;6.35;;;2.25;;
28577;SDS011;15769;52.248;15.818;2023-04-25T23:08:07;9.07;;;2.83;;
28577;SDS011;15769;52.248;15.818;2023-04-25T23:13:10;10.45;;;2.65;;
28577;SDS011;15769;52.248;15.818;2023-04-25T23:18:13;5.13;;;2.47;;
28577;SDS011;15769;52.248;15.818;2023-04-25T23:23:15;6.87;;;2.97;;
28577;SDS011;15769;52.248;15.818;2023-04-25T23:28:18;6.15;;;2.35;;
28577;SDS011;15769;52.248;15.818;2023-04-25T23:33:20;8.15;;;3.20;;
28577;SDS011;15769;52.248;15.818;2023-04-25T23:43:27;10.57;;;3.20;;
28577;SDS011;15769;52.248;15.818;2023-04-25T23:48:29;13.85;;;5.45;;
28577;SDS011;15769;52.248;15.818;2023-04-25T23:53:31;18.63;;;8.82;;
28577;SDS011;15769;52.248;15.818;2023-04-25T23:58:37;16.73;;;7.30;;
